Time;durP1;ratioP1;P1;durP2;ratioP2;P2;SDS_P1;SDS_P2;PMS_P1;PMS_P2;Temp;Humidity;BMP_temperature;BMP_pressure;BME280_temperature;BME280_humidity;BME280_pressure;Samples;Min_cycle;Max_cycle;Signal;HPM_P1;HPM_P2
2022/09/28 00:00:41;;;;;;;37.97;5.63;;;16.30;99.90;;;;;;4964784;29;20015;-83
2022/09/28 00:03:08;;;;;;;29.70;5.95;;;16.30;99.90;;;;;;4964528;29;20251;-83
2022/09/28 00:05:34;;;;;;;38.75;6.10;;;16.40;99.90;;;;;;4963632;28;20209;-83
2022/09/28 00:07:59;;;;;;;31.98;5.90;;;16.40;99.90;;;;;;4964643;28;20038;-83
2022/09/28 00:10:25;;;;;;;29.40;5.93;;;16.50;99.90;;;;;;4965087;29;20035;-83
2022/09/28 00:12:54;;;;;;;27.00;5.07;;;16.50;99.90;;;;;;4964291;29;20034;-83
2022/09/28 00:15:20;;;;;;;32.45;5.28;;;16.60;99.90;;;;;;4964566;29;20058;-83
2022/09/28 00:17:46;;;;;;;41.75;5.60;;;16.70;99.90;;;;;;4964947;29;20086;-83
2022/09/28 00:20:12;;;;;;;28.60;5.65;;;16.70;99.90;;;;;;4961501;29;20019;-83
2022/09/28 00:22:38;;;;;;;38.10;6.97;;;16.70;99.90;;;;;;4964496;29;20054;-83
2022/09/28 00:25:05;;;;;;;34.78;5.72;;;16.70;99.90;;;;;;4965329;28;20019;-83
2022/09/28 00:27:31;;;;;;;29.08;5.60;;;16.80;99.90;;;;;;4964465;28;20350;-83
2022/09/28 00:29:57;;;;;;;29.98;5.55;;;16.70;99.90;;;;;;4964368;29;20274;-83
2022/09/28 00:32:23;;;;;;;29.85;5.45;;;16.60;99.90;;;;;;4964346;29;20031;-83
2022/09/28 00:34:50;;;;;;;33.00;5.32;;;16.50;99.90;;;;;;4964220;29;20078;-83
2022/09/28 00:37:17;;;;;;;35.03;5.90;;;16.40;99.90;;;;;;4964067;29;20015;-83
2022/09/28 00:39:43;;;;;;;27.60;5.38;;;16.40;99.90;;;;;;4964050;29;20089;-83
2022/09/28 00:42:24;;;;;;;31.23;5.85;;;16.40;99.90;;;;;;4963854;29;20347;-83
2022/09/28 00:44:54;;;;;;;35.03;6.45;;;16.40;99.90;;;;;;4963602;29;20019;-83
2022/09/28 00:47:43;;;;;;;36.22;5.65;;;16.30;99.90;;;;;;4960752;29;20043;-83
2022/09/28 00:50:25;;;;;;;35.83;5.90;;;16.40;99.90;;;;;;4960491;29;20022;-83
2022/09/28 00:53:00;;;;;;;34.45;6.15;;;16.40;99.90;;;;;;4963675;29;20046;-83
2022/09/28 00:55:39;;;;;;;34.35;5.78;;;16.50;99.90;;;;;;4963812;29;20027;-83
2022/09/28 00:58:08;;;;;;;38.90;6.57;;;16.50;99.90;;;;;;4957511;29;20031;-83
2022/09/28 01:00:34;;;;;;;39.78;6.35;;;16.50;99.90;;;;;;4966204;28;20038;-83
2022/09/28 01:02:59;;;;;;;38.53;5.93;;;16.50;99.90;;;;;;4963167;29;20015;-83
2022/09/28 01:05:26;;;;;;;29.40;5.18;;;16.60;99.90;;;;;;4962435;28;20127;-83
2022/09/28 01:07:54;;;;;;;36.95;5.68;;;16.60;99.90;;;;;;4963092;28;20086;-82
2022/09/28 01:10:20;;;;;;;22.00;4.30;;;16.60;99.90;;;;;;4963421;29;20023;-83
2022/09/28 01:12:46;;;;;;;37.20;5.78;;;16.70;99.90;;;;;;4962838;29;20335;-82
2022/09/28 01:15:12;;;;;;;15.93;2.40;;;16.70;99.90;;;;;;4963270;29;20030;-82
2022/09/28 01:17:49;;;;;;;19.35;3.20;;;16.80;99.90;;;;;;4962732;29;20039;-83
2022/09/28 01:20:20;;;;;;;15.40;2.85;;;16.90;99.90;;;;;;4963151;29;20018;-83
2022/09/28 01:22:49;;;;;;;20.42;2.88;;;16.90;99.90;;;;;;4957394;29;20038;-83
2022/09/28 01:25:32;;;;;;;22.75;4.05;;;16.80;99.90;;;;;;4963091;29;20029;-83
2022/09/28 01:28:05;;;;;;;25.17;4.03;;;16.80;99.90;;;;;;4963000;29;20275;-83
2022/09/28 01:30:42;;;;;;;22.33;3.83;;;16.80;99.90;;;;;;4962961;29;20094;-83
2022/09/28 01:33:12;;;;;;;20.75;4.05;;;16.70;99.90;;;;;;4962474;29;20036;-83
2022/09/28 01:35:58;;;;;;;23.77;3.40;;;16.70;99.90;;;;;;4962010;29;20284;-83
2022/09/28 01:38:49;;;;;;;22.83;3.58;;;16.70;99.90;;;;;;4956718;29;20263;-83
2022/09/28 01:41:16;;;;;;;17.50;3.10;;;16.70;99.90;;;;;;4960378;29;20019;-83
2022/09/28 01:43:47;;;;;;;32.47;3.67;;;16.70;99.90;;;;;;4962893;29;20382;-83
2022/09/28 01:46:19;;;;;;;24.83;4.25;;;16.70;99.90;;;;;;4962970;29;20356;-83
2022/09/28 01:48:57;;;;;;;22.92;3.42;;;16.70;99.90;;;;;;4963155;29;20216;-83
2022/09/28 01:51:52;;;;;;;26.83;3.92;;;16.70;99.90;;;;;;4962124;29;20196;-83
2022/09/28 01:54:27;;;;;;;17.00;2.88;;;16.70;99.90;;;;;;4962453;29;20034;-83
2022/09/28 01:57:07;;;;;;;22.55;2.95;;;16.70;99.90;;;;;;4962833;29;20337;-83
2022/09/28 01:59:35;;;;;;;18.40;3.92;;;16.70;99.90;;;;;;4962724;29;20047;-83
2022/09/28 02:02:07;;;;;;;22.45;3.28;;;16.70;99.90;;;;;;4962360;29;20038;-83
2022/09/28 02:04:40;;;;;;;27.15;3.83;;;16.70;99.90;;;;;;4962534;29;20031;-83
2022/09/28 02:07:21;;;;;;;33.83;5.38;;;16.70;99.90;;;;;;4962545;29;20090;-82
2022/09/28 02:09:57;;;;;;;22.30;3.22;;;16.70;99.90;;;;;;4962192;29;20035;-83
2022/09/28 02:12:45;;;;;;;24.40;3.22;;;16.70;99.90;;;;;;4962466;29;20308;-83
2022/09/28 02:15:22;;;;;;;18.10;2.67;;;16.70;99.90;;;;;;4965713;28;20019;-83
2022/09/28 02:17:49;;;;;;;18.73;2.55;;;16.70;99.90;;;;;;4956406;29;20023;-84
2022/09/28 02:20:16;;;;;;;20.52;2.88;;;16.70;99.90;;;;;;4964355;28;20023;-84
2022/09/28 02:22:52;;;;;;;24.75;3.17;;;16.70;99.90;;;;;;4966514;29;20363;-83
2022/09/28 02:25:39;;;;;;;25.85;3.00;;;16.60;99.90;;;;;;4966502;29;20231;-83
2022/09/28 02:28:06;;;;;;;21.58;3.28;;;16.50;99.90;;;;;;4966188;29;20067;-83
2022/09/28 02:30:35;;;;;;;21.95;2.78;;;16.40;99.90;;;;;;4966004;29;20018;-84
2022/09/28 02:33:28;;;;;;;26.60;3.53;;;16.30;99.90;;;;;;4971400;28;20271;-83
2022/09/28 02:35:54;;;;;;;18.23;2.88;;;16.40;99.90;;;;;;4965847;29;20031;-84
2022/09/28 02:38:19;;;;;;;29.05;3.28;;;16.30;99.90;;;;;;4966122;29;20046;-86
2022/09/28 02:41:16;;;;;;;23.27;3.97;;;16.30;99.90;;;;;;4966114;29;20314;-85
2022/09/28 02:43:51;;;;;;;25.58;3.35;;;16.30;99.90;;;;;;4929875;29;20027;-85
2022/09/28 02:46:27;;;;;;;28.17;4.22;;;16.30;99.90;;;;;;4965608;29;20027;-84
2022/09/28 02:49:11;;;;;;;33.67;3.83;;;16.20;99.90;;;;;;4966231;29;20039;-85
2022/09/28 02:52:01;;;;;;;20.95;3.25;;;16.20;99.90;;;;;;4961136;29;20366;-84
2022/09/28 02:54:47;;;;;;;26.38;3.83;;;16.20;99.90;;;;;;4966297;29;20019;-84
2022/09/28 02:57:21;;;;;;;28.67;3.70;;;16.10;99.90;;;;;;4966593;29;20023;-85
2022/09/28 03:00:02;;;;;;;29.52;3.20;;;16.10;99.90;;;;;;4959247;29;20035;-84
2022/09/28 03:02:38;;;;;;;25.48;3.38;;;16.10;99.90;;;;;;4965906;29;20102;-84
2022/09/28 03:05:17;;;;;;;31.25;3.88;;;16.10;99.90;;;;;;4964815;29;20024;-84
2022/09/28 03:07:55;;;;;;;25.20;3.10;;;16.10;99.90;;;;;;4965594;29;20035;-84
2022/09/28 03:10:42;;;;;;;25.50;3.65;;;16.00;99.90;;;;;;4965931;29;20191;-83
2022/09/28 03:13:08;;;;;;;27.35;3.42;;;16.00;99.90;;;;;;4961195;29;20023;-84
2022/09/28 03:15:35;;;;;;;28.17;4.43;;;16.10;99.90;;;;;;4965366;29;20027;-84
2022/09/28 03:18:01;;;;;;;29.05;4.25;;;16.10;99.90;;;;;;4965677;29;20066;-85
2022/09/28 03:20:28;;;;;;;27.08;4.10;;;16.20;99.90;;;;;;4965088;29;20023;-84
2022/09/28 03:22:55;;;;;;;30.98;5.32;;;16.20;99.90;;;;;;4965869;29;20031;-84
2022/09/28 03:25:21;;;;;;;20.80;3.75;;;16.20;99.90;;;;;;4965074;29;20015;-84
2022/09/28 03:27:47;;;;;;;24.90;4.20;;;16.30;99.90;;;;;;4963944;29;20046;-84
2022/09/28 03:30:13;;;;;;;28.75;3.92;;;16.30;99.90;;;;;;4965213;29;20027;-84
2022/09/28 03:32:39;;;;;;;27.83;4.28;;;16.30;99.90;;;;;;4963164;28;20106;-84
2022/09/28 03:35:06;;;;;;;21.60;3.60;;;16.40;99.90;;;;;;4957965;29;20031;-83
2022/09/28 03:37:32;;;;;;;28.13;3.80;;;16.40;99.90;;;;;;4964949;29;20255;-85
2022/09/28 03:39:58;;;;;;;20.50;3.53;;;16.50;99.90;;;;;;4965268;29;20055;-85
2022/09/28 03:42:23;;;;;;;24.75;3.88;;;16.50;99.90;;;;;;4964926;29;20039;-83
2022/09/28 03:44:49;;;;;;;23.08;3.63;;;16.50;99.90;;;;;;4963938;29;20034;-84
2022/09/28 03:47:16;;;;;;;29.92;4.25;;;16.60;99.90;;;;;;4964183;29;20342;-85
2022/09/28 03:49:42;;;;;;;27.48;3.72;;;16.50;99.90;;;;;;4964847;29;20035;-85
2022/09/28 03:52:08;;;;;;;25.10;3.55;;;16.40;99.90;;;;;;4966865;29;20331;-84
2022/09/28 03:54:34;;;;;;;27.40;4.03;;;16.40;99.90;;;;;;4966221;29;20082;-84
2022/09/28 03:57:00;;;;;;;32.63;4.80;;;16.30;99.90;;;;;;4964824;29;20038;-84
2022/09/28 03:59:25;;;;;;;25.23;3.25;;;16.30;99.90;;;;;;4963433;29;20047;-84
2022/09/28 04:01:51;;;;;;;30.98;4.72;;;16.40;99.90;;;;;;4964510;29;20027;-83
2022/09/28 04:04:17;;;;;;;31.85;4.75;;;16.40;99.90;;;;;;4964155;29;20023;-83
2022/09/28 04:06:43;;;;;;;26.42;4.25;;;16.50;99.90;;;;;;4964615;29;20023;-83
2022/09/28 04:09:09;;;;;;;25.52;4.03;;;16.50;99.90;;;;;;4964801;29;20045;-84
2022/09/28 04:11:34;;;;;;;27.08;3.75;;;16.50;99.90;;;;;;4964295;29;20023;-83
2022/09/28 04:14:00;;;;;;;24.90;4.13;;;16.60;99.90;;;;;;4964312;29;20054;-83
2022/09/28 04:16:26;;;;;;;24.60;3.95;;;16.60;99.90;;;;;;4964156;29;20402;-83
2022/09/28 04:18:52;;;;;;;17.52;3.80;;;16.60;99.90;;;;;;4964136;29;20046;-83
2022/09/28 04:21:19;;;;;;;26.95;4.00;;;16.70;99.90;;;;;;4964419;29;20019;-83
2022/09/28 04:23:46;;;;;;;28.73;4.18;;;16.70;99.90;;;;;;4964657;29;20109;-83
2022/09/28 04:26:37;;;;;;;25.92;4.53;;;16.70;99.90;;;;;;4964279;29;20378;-83
2022/09/28 04:29:15;;;;;;;30.73;5.70;;;16.70;99.90;;;;;;4958037;29;20107;-83
2022/09/28 04:31:47;;;;;;;32.20;4.30;;;16.70;99.90;;;;;;4963606;29;20035;-82
2022/09/28 04:34:16;;;;;;;25.80;3.90;;;16.70;99.90;;;;;;4963660;29;20167;-83
2022/09/28 04:36:43;;;;;;;29.30;3.53;;;16.70;99.90;;;;;;4964053;29;20180;-83
2022/09/28 04:39:13;;;;;;;24.02;3.35;;;16.70;99.90;;;;;;4963522;29;20033;-83
2022/09/28 04:41:39;;;;;;;27.42;4.25;;;16.70;99.90;;;;;;4963851;29;20035;-83
2022/09/28 04:44:05;;;;;;;26.10;4.88;;;16.70;99.90;;;;;;4962871;28;20333;-83
2022/09/28 04:46:30;;;;;;;21.83;3.47;;;16.70;99.90;;;;;;4962731;29;20039;-83
2022/09/28 04:48:56;;;;;;;25.40;3.28;;;16.60;99.90;;;;;;4963648;29;20191;-83
2022/09/28 04:51:22;;;;;;;16.30;2.92;;;16.70;99.90;;;;;;4963684;29;20019;-83
2022/09/28 04:53:47;;;;;;;32.30;4.40;;;16.60;99.90;;;;;;4962819;29;20082;-83
2022/09/28 04:56:15;;;;;;;27.15;4.60;;;16.70;99.90;;;;;;4963527;29;20176;-83
2022/09/28 04:58:41;;;;;;;29.30;4.38;;;16.60;99.90;;;;;;4963004;29;20051;-83
2022/09/28 05:01:17;;;;;;;23.92;3.55;;;16.60;99.90;;;;;;4963227;29;20197;-83
2022/09/28 05:03:43;;;;;;;34.28;4.60;;;16.60;99.90;;;;;;4963133;29;20045;-83
2022/09/28 05:06:13;;;;;;;29.00;4.57;;;16.60;99.90;;;;;;4963619;29;20031;-83
2022/09/28 05:08:39;;;;;;;28.52;4.38;;;16.60;99.90;;;;;;4963454;29;20031;-83
2022/09/28 05:11:07;;;;;;;29.15;4.88;;;16.70;99.90;;;;;;4963382;29;20038;-84
2022/09/28 05:13:40;;;;;;;39.03;4.80;;;16.60;99.90;;;;;;4963107;29;20299;-83
2022/09/28 05:16:07;;;;;;;27.00;3.83;;;16.60;99.90;;;;;;4962960;29;20227;-82
2022/09/28 05:18:32;;;;;;;32.45;4.35;;;16.70;99.90;;;;;;4963235;29;20082;-83
2022/09/28 05:20:58;;;;;;;22.33;3.92;;;16.70;99.90;;;;;;4963015;29;20339;-83
2022/09/28 05:23:23;;;;;;;25.70;4.00;;;16.80;99.90;;;;;;4963245;29;20023;-82
2022/09/28 05:25:49;;;;;;;25.83;4.10;;;16.80;99.90;;;;;;4962377;29;20094;-82
2022/09/28 05:28:23;;;;;;;29.67;3.92;;;16.80;99.90;;;;;;4962414;29;20102;-82
2022/09/28 05:30:48;;;;;;;30.27;4.97;;;16.90;99.90;;;;;;4962378;29;20028;-82
2022/09/28 05:33:14;;;;;;;26.40;4.28;;;16.90;99.90;;;;;;4966039;28;20311;-83
2022/09/28 05:35:39;;;;;;;36.40;5.13;;;16.80;99.90;;;;;;4961557;29;20030;-83
2022/09/28 05:38:05;;;;;;;31.85;5.57;;;16.80;99.90;;;;;;4969175;28;20034;-82
2022/09/28 05:40:31;;;;;;;26.27;5.05;;;16.80;99.90;;;;;;4962791;29;20106;-83
2022/09/28 05:43:00;;;;;;;33.38;4.43;;;16.90;99.90;;;;;;4963219;29;20106;-81
2022/09/28 05:45:27;;;;;;;34.53;5.30;;;16.90;99.90;;;;;;4959790;29;20023;-81
2022/09/28 05:47:53;;;;;;;24.60;4.55;;;16.90;99.90;;;;;;4959634;29;20043;-81
2022/09/28 05:50:19;;;;;;;37.03;6.90;;;16.80;99.90;;;;;;4952838;29;20029;-81
2022/09/28 05:52:45;;;;;;;26.38;3.85;;;16.80;99.90;;;;;;4953580;29;20078;-81
2022/09/28 05:55:11;;;;;;;43.42;5.32;;;16.80;99.90;;;;;;4960407;28;20230;-81
2022/09/28 05:57:37;;;;;;;31.70;4.95;;;16.80;99.90;;;;;;4957328;28;20035;-80
2022/09/28 06:00:09;;;;;;;37.60;4.63;;;16.80;99.90;;;;;;4957793;29;20015;-80
2022/09/28 06:02:34;;;;;;;25.40;4.00;;;16.80;99.90;;;;;;4955318;29;20166;-80
2022/09/28 06:05:00;;;;;;;27.83;4.63;;;16.70;99.90;;;;;;4957365;28;20110;-80
2022/09/28 06:07:26;;;;;;;24.95;3.95;;;16.70;99.90;;;;;;4957396;29;20504;-80
2022/09/28 06:09:52;;;;;;;27.63;5.45;;;16.70;99.90;;;;;;4964625;28;20027;-80
2022/09/28 06:12:18;;;;;;;33.60;4.68;;;16.60;99.90;;;;;;4969150;29;20090;-81
2022/09/28 06:14:44;;;;;;;39.40;6.03;;;16.60;99.90;;;;;;4965015;28;20034;-81
2022/09/28 06:17:10;;;;;;;29.17;4.75;;;16.70;99.90;;;;;;4963362;28;20027;-80
2022/09/28 06:19:35;;;;;;;19.92;4.00;;;16.70;99.90;;;;;;4959250;28;20055;-80
2022/09/28 06:22:01;;;;;;;36.00;4.30;;;16.80;99.90;;;;;;4962160;28;20023;-80
2022/09/28 06:24:26;;;;;;;32.30;4.72;;;16.80;99.90;;;;;;4968939;29;20021;-86
2022/09/28 06:26:52;;;;;;;32.67;4.93;;;16.90;99.90;;;;;;4963372;28;20038;-87
2022/09/28 06:29:18;;;;;;;24.17;2.88;;;16.80;99.90;;;;;;4945856;29;20027;-86
2022/09/28 06:31:44;;;;;;;16.88;2.25;;;16.40;99.90;;;;;;4964027;28;20023;-86
2022/09/28 06:34:11;;;;;;;36.60;4.72;;;16.10;99.90;;;;;;4940129;29;20102;-89
2022/09/28 06:36:37;;;;;;;24.95;3.13;;;15.90;99.90;;;;;;4959741;28;20024;-88
2022/09/28 06:39:03;;;;;;;31.20;3.20;;;15.80;99.90;;;;;;4965266;28;20042;-88
2022/09/28 06:41:29;;;;;;;37.00;4.93;;;15.80;99.90;;;;;;4968902;29;20090;-88
2022/09/28 06:43:55;;;;;;;33.70;4.03;;;15.80;99.90;;;;;;4961977;28;20404;-88
2022/09/28 06:46:21;;;;;;;48.30;6.05;;;15.90;99.90;;;;;;4957465;29;20686;-89
2022/09/28 06:48:47;;;;;;;47.28;5.20;;;16.00;99.90;;;;;;4957500;29;20276;-90
2022/09/28 06:51:12;;;;;;;41.72;5.05;;;16.00;99.90;;;;;;4957525;29;20023;-89
2022/09/28 06:53:38;;;;;;;36.65;4.95;;;16.00;99.90;;;;;;4958296;29;20395;-90
2022/09/28 06:56:05;;;;;;;36.50;5.63;;;16.00;99.90;;;;;;4958255;29;20024;-91
2022/09/28 06:58:31;;;;;;;36.90;4.68;;;16.10;99.90;;;;;;4954404;29;20041;-91
2022/09/28 07:00:59;;;;;;;26.77;4.00;;;16.10;99.90;;;;;;4957879;29;20603;-92
2022/09/28 07:03:25;;;;;;;38.40;4.85;;;16.20;99.90;;;;;;4957735;29;20035;-90
2022/09/28 07:05:53;;;;;;;40.83;5.78;;;16.20;99.90;;;;;;4955574;28;20025;-91
2022/09/28 07:08:23;;;;;;;30.88;4.22;;;16.30;99.90;;;;;;4955399;29;20050;-92
2022/09/28 07:10:55;;;;;;;28.25;3.60;;;16.20;99.90;;;;;;4937964;29;20042;-88
2022/09/28 07:13:22;;;;;;;25.38;4.35;;;16.10;99.90;;;;;;4954332;29;20027;-90
2022/09/28 07:15:52;;;;;;;27.10;4.32;;;16.10;99.90;;;;;;4952771;29;20027;-89
2022/09/28 07:18:18;;;;;;;36.33;4.32;;;16.10;99.90;;;;;;4952622;29;20038;-88
2022/09/28 07:20:43;;;;;;;31.75;4.55;;;16.20;99.90;;;;;;4952710;29;20024;-88
2022/09/28 07:23:09;;;;;;;31.85;4.32;;;16.20;99.90;;;;;;4952352;29;20488;-88
2022/09/28 07:25:39;;;;;;;56.83;5.90;;;16.30;99.90;;;;;;4952509;29;20073;-87
2022/09/28 07:28:05;;;;;;;28.52;3.60;;;16.30;99.90;;;;;;4952682;29;20046;-88
2022/09/28 07:30:33;;;;;;;33.20;4.40;;;16.10;99.90;;;;;;4954143;29;20015;-89
2022/09/28 07:32:59;;;;;;;39.00;5.82;;;15.90;99.90;;;;;;4954242;29;20054;-87
2022/09/28 07:35:26;;;;;;;33.35;4.03;;;15.90;99.90;;;;;;4954157;29;20031;-87
2022/09/28 07:38:00;;;;;;;46.55;4.93;;;15.90;99.90;;;;;;4953861;29;20034;-87
2022/09/28 07:43:12;;;;;;;46.42;5.18;;;15.90;99.90;;;;;;4954376;29;20038;-88
2022/09/28 07:45:38;;;;;;;36.97;5.07;;;16.00;99.90;;;;;;4940919;29;20031;-91
2022/09/28 07:48:13;;;;;;;33.30;4.10;;;16.00;99.90;;;;;;4937684;29;20150;-91
2022/09/28 07:51:36;;;;;;;42.85;5.82;;;16.10;99.90;;;;;;4939035;29;20436;-95
2022/09/28 08:04:07;;;;;;;34.47;5.20;;;16.20;99.90;;;;;;4844595;29;20047;-92
2022/09/28 08:06:33;;;;;;;26.42;3.28;;;16.20;99.90;;;;;;4912153;29;20038;-92
2022/09/28 08:09:00;;;;;;;27.55;4.18;;;16.30;99.90;;;;;;4933685;29;20087;-91
2022/09/28 08:11:26;;;;;;;28.35;4.00;;;16.30;99.90;;;;;;4945307;29;20496;-89
2022/09/28 08:13:55;;;;;;;25.88;4.20;;;16.50;99.90;;;;;;4934887;29;20058;-90
2022/09/28 08:16:21;;;;;;;27.42;4.28;;;16.60;99.90;;;;;;4922865;29;20027;-89
2022/09/28 08:18:49;;;;;;;28.00;3.67;;;16.70;99.90;;;;;;4933978;29;20027;-89
2022/09/28 08:23:59;;;;;;;29.58;4.03;;;16.90;99.90;;;;;;4933960;29;20495;-87
2022/09/28 08:26:25;;;;;;;23.90;4.18;;;16.90;99.90;;;;;;4929349;29;20028;-87
2022/09/28 08:28:50;;;;;;;29.73;3.72;;;17.00;99.90;;;;;;4928956;29;20393;-86
2022/09/28 08:31:16;;;;;;;19.73;3.22;;;17.10;99.90;;;;;;4934655;29;20699;-86
2022/09/28 08:33:42;;;;;;;16.35;3.17;;;17.10;99.90;;;;;;4933850;29;20091;-85
2022/09/28 08:36:09;;;;;;;23.88;3.50;;;17.30;99.90;;;;;;4921849;29;20075;-85
2022/09/28 08:38:34;;;;;;;20.70;2.78;;;17.50;99.90;;;;;;4933712;29;20420;-86
2022/09/28 08:41:15;;;;;;;19.58;2.42;;;17.50;99.90;;;;;;4923659;29;20106;-85
2022/09/28 08:44:10;;;;;;;23.40;3.30;;;17.30;99.90;;;;;;4933454;29;20115;-85
2022/09/28 08:46:45;;;;;;;22.58;3.58;;;17.00;99.90;;;;;;4937174;29;20114;-83
2022/09/28 08:49:14;;;;;;;31.60;4.15;;;17.00;99.90;;;;;;4935449;29;20034;-84
2022/09/28 08:52:05;;;;;;;26.83;3.88;;;17.10;99.90;;;;;;4933411;29;20026;-85
2022/09/28 08:54:43;;;;;;;20.58;3.35;;;17.30;99.90;;;;;;4933185;29;20036;-84
2022/09/28 08:57:17;;;;;;;22.63;2.60;;;17.40;99.90;;;;;;4933033;29;20027;-83
2022/09/28 08:59:50;;;;;;;17.45;2.60;;;17.30;99.90;;;;;;4930193;29;20052;-83
2022/09/28 09:02:27;;;;;;;15.38;2.55;;;17.30;99.90;;;;;;4933306;29;20043;-83
2022/09/28 09:04:55;;;;;;;18.88;3.15;;;17.40;99.90;;;;;;4933101;29;20408;-83
2022/09/28 09:07:33;;;;;;;29.45;4.32;;;17.50;99.90;;;;;;4943233;29;20109;-83
2022/09/28 09:10:06;;;;;;;24.55;3.55;;;17.60;99.90;;;;;;4939757;29;20047;-83
2022/09/28 09:13:01;;;;;;;21.40;3.25;;;17.70;99.90;;;;;;4932903;29;20080;-83
2022/09/28 09:16:03;;;;;;;24.23;3.47;;;17.90;99.90;;;;;;4932976;29;20032;-83
2022/09/28 09:18:34;;;;;;;25.70;3.55;;;18.00;99.90;;;;;;4890676;29;20036;-82
2022/09/28 09:21:12;;;;;;;22.45;3.38;;;18.00;99.90;;;;;;4919978;29;20504;-83
2022/09/28 09:23:55;;;;;;;17.30;2.78;;;18.00;99.90;;;;;;4932952;29;20026;-83
2022/09/28 09:26:38;;;;;;;24.98;3.53;;;18.00;99.90;;;;;;4927962;29;20426;-83
2022/09/28 09:29:07;;;;;;;20.42;3.63;;;18.20;99.90;;;;;;4932145;29;20508;-83
2022/09/28 09:31:53;;;;;;;25.98;3.55;;;18.30;99.90;;;;;;4933070;29;20030;-82
2022/09/28 09:34:27;;;;;;;20.80;3.30;;;18.20;99.90;;;;;;4932827;29;20035;-83
2022/09/28 09:37:12;;;;;;;25.52;4.28;;;18.20;99.90;;;;;;4915990;29;20032;-82
2022/09/28 09:40:02;;;;;;;25.42;4.03;;;18.20;99.90;;;;;;4922514;29;20271;-82
2022/09/28 09:42:51;;;;;;;22.60;3.33;;;18.00;99.90;;;;;;4940764;29;20087;-82
2022/09/28 09:45:28;;;;;;;22.13;3.35;;;18.00;99.90;;;;;;4927937;29;20036;-82
2022/09/28 09:48:22;;;;;;;17.88;2.72;;;18.10;99.90;;;;;;4915063;29;20067;-83
2022/09/28 09:50:54;;;;;;;14.93;2.40;;;17.90;99.90;;;;;;4932250;29;20032;-83
2022/09/28 09:53:28;;;;;;;15.05;2.53;;;17.90;99.90;;;;;;4926635;29;20034;-82
2022/09/28 09:56:11;;;;;;;15.93;2.22;;;17.90;99.90;;;;;;4932308;29;20031;-82
2022/09/28 09:58:52;;;;;;;21.95;2.90;;;18.00;99.90;;;;;;4932689;29;20032;-82
2022/09/28 10:01:31;;;;;;;18.95;2.63;;;18.30;99.90;;;;;;4933040;29;20055;-83
2022/09/28 10:03:57;;;;;;;16.92;3.08;;;18.50;99.90;;;;;;4938728;29;20191;-82
2022/09/28 10:06:32;;;;;;;13.43;2.40;;;18.30;99.90;;;;;;4932199;29;20022;-82
2022/09/28 10:09:15;;;;;;;14.63;2.80;;;18.30;99.90;;;;;;4926681;29;20036;-82
2022/09/28 10:11:47;;;;;;;15.43;2.50;;;18.40;99.90;;;;;;4931997;29;20110;-82
2022/09/28 10:14:20;;;;;;;21.92;3.42;;;18.20;99.90;;;;;;4932384;29;20027;-83
2022/09/28 10:16:47;;;;;;;16.42;2.58;;;18.20;99.90;;;;;;4924145;29;20023;-81
2022/09/28 10:19:15;;;;;;;12.82;2.33;;;18.30;99.90;;;;;;4932071;29;20079;-84
2022/09/28 10:21:41;;;;;;;19.52;3.15;;;18.20;99.90;;;;;;4933563;29;20027;-83
2022/09/28 10:24:20;;;;;;;17.33;2.65;;;18.30;99.90;;;;;;4935166;29;20024;-84
2022/09/28 10:26:51;;;;;;;18.52;2.70;;;18.40;99.90;;;;;;4933219;29;20059;-83
2022/09/28 10:29:23;;;;;;;20.08;2.53;;;18.50;99.90;;;;;;4932106;29;20036;-84
2022/09/28 10:31:51;;;;;;;14.23;2.30;;;18.70;99.90;;;;;;4931841;29;20027;-84
2022/09/28 10:34:23;;;;;;;15.93;2.42;;;19.00;99.90;;;;;;4932496;29;20283;-84
2022/09/28 10:36:51;;;;;;;16.08;1.90;;;18.90;99.90;;;;;;4932012;29;20028;-84
2022/09/28 10:39:31;;;;;;;11.68;1.95;;;18.70;99.90;;;;;;4932824;29;20480;-83
2022/09/28 10:42:02;;;;;;;15.38;2.75;;;18.50;99.90;;;;;;4939280;28;20056;-82
2022/09/28 10:44:31;;;;;;;13.77;1.85;;;18.50;99.90;;;;;;4935573;29;20020;-83
2022/09/28 10:47:09;;;;;;;14.00;2.30;;;18.50;99.90;;;;;;4928362;29;20039;-81
2022/09/28 10:49:43;;;;;;;15.07;2.00;;;18.30;99.90;;;;;;4936348;29;20043;-84
2022/09/28 10:52:40;;;;;;;10.30;1.75;;;18.10;99.90;;;;;;4935503;29;20428;-82
2022/09/28 10:55:26;;;;;;;11.85;2.30;;;18.20;99.90;;;;;;4935322;29;20037;-81
2022/09/28 10:57:52;;;;;;;10.05;1.90;;;18.20;99.90;;;;;;4935189;29;20404;-81
2022/09/28 11:00:39;;;;;;;14.30;2.33;;;18.50;99.90;;;;;;4935151;29;20125;-81
2022/09/28 11:03:16;;;;;;;5.97;1.38;;;18.70;99.90;;;;;;4928544;29;20028;-81
2022/09/28 11:05:42;;;;;;;4.82;1.00;;;18.80;99.90;;;;;;4936651;29;20453;-81
2022/09/28 11:08:21;;;;;;;10.65;1.35;;;18.90;99.90;;;;;;4934903;29;20508;-81
2022/09/28 11:10:47;;;;;;;5.93;1.17;;;18.80;99.90;;;;;;4930348;29;20032;-82
2022/09/28 11:13:13;;;;;;;11.45;1.55;;;18.70;99.90;;;;;;4935235;29;20453;-82
2022/09/28 11:15:43;;;;;;;8.65;1.63;;;18.60;99.90;;;;;;4935146;29;20493;-82
2022/09/28 11:18:25;;;;;;;9.35;1.40;;;18.60;99.90;;;;;;4940301;29;20544;-81
2022/09/28 11:20:51;;;;;;;11.60;1.63;;;18.70;99.90;;;;;;4935300;29;20043;-81
2022/09/28 11:23:17;;;;;;;6.50;1.23;;;18.90;99.90;;;;;;4928721;29;20028;-81
2022/09/28 11:25:53;;;;;;;6.95;1.58;;;18.90;99.90;;;;;;4934645;29;20027;-82
2022/09/28 11:28:28;;;;;;;7.18;1.42;;;18.80;99.90;;;;;;4934508;29;20040;-82
2022/09/28 11:30:53;;;;;;;;;;;18.70;99.90;;;;;;4935360;29;20099;-81
2022/09/28 11:33:23;;;;;;;10.18;1.88;;;18.70;99.90;;;;;;4934648;29;20043;-81
2022/09/28 11:36:19;;;;;;;9.05;1.30;;;18.80;99.90;;;;;;4935303;29;20516;-81
2022/09/28 11:39:08;;;;;;;10.68;2.40;;;18.60;99.90;;;;;;4938824;29;20110;-81
2022/09/28 11:41:56;;;;;;;13.40;2.90;;;18.50;99.90;;;;;;4934481;29;20123;-81
2022/09/28 11:44:33;;;;;;;12.48;2.83;;;18.50;99.90;;;;;;4934354;29;20500;-82
2022/09/28 11:47:17;;;;;;;15.77;3.78;;;18.60;99.90;;;;;;4934526;29;20067;-81
2022/09/28 11:49:46;;;;;;;8.93;2.33;;;18.60;99.90;;;;;;4934299;29;20036;-82
2022/09/28 11:52:40;;;;;;;7.88;1.20;;;18.60;99.90;;;;;;4935801;29;20024;-81
2022/09/28 11:55:20;;;;;;;4.88;0.93;;;18.70;99.90;;;;;;4891179;29;20034;-81
2022/09/28 11:57:52;;;;;;;10.23;2.08;;;18.80;99.90;;;;;;4934221;29;20020;-81
2022/09/28 12:00:21;;;;;;;12.15;1.90;;;18.90;99.90;;;;;;4937140;29;20520;-82
2022/09/28 12:02:58;;;;;;;7.20;1.40;;;18.90;99.90;;;;;;4934140;29;20048;-81
2022/09/28 12:05:32;;;;;;;8.95;1.50;;;18.70;99.90;;;;;;4934301;29;20059;-81
2022/09/28 12:08:12;;;;;;;7.22;1.25;;;18.60;99.90;;;;;;4934110;29;20301;-81
2022/09/28 12:10:42;;;;;;;8.27;1.15;;;18.40;99.90;;;;;;4928113;29;20032;-81
2022/09/28 12:13:13;;;;;;;6.00;0.90;;;18.40;99.90;;;;;;4928981;29;20035;-81
2022/09/28 12:15:38;;;;;;;8.15;1.20;;;18.30;99.90;;;;;;4939591;29;20031;-81
2022/09/28 12:18:26;;;;;;;3.28;0.70;;;18.30;99.90;;;;;;4934064;29;20028;-81
2022/09/28 12:21:31;;;;;;;6.88;0.90;;;18.50;99.90;;;;;;4924350;29;20531;-81
2022/09/28 12:24:13;;;;;;;5.18;0.90;;;18.70;99.90;;;;;;4933466;29;20118;-81
2022/09/28 12:26:57;;;;;;;5.60;1.50;;;18.70;99.90;;;;;;4936581;29;20028;-81
2022/09/28 12:29:32;;;;;;;3.72;0.60;;;18.90;99.90;;;;;;4916489;29;20032;-81
2022/09/28 12:32:16;;;;;;;5.60;0.80;;;19.20;99.90;;;;;;4937854;29;20066;-82
2022/09/28 12:34:42;;;;;;;5.13;0.93;;;19.30;99.90;;;;;;4929571;29;20031;-81
2022/09/28 12:37:34;;;;;;;4.43;0.98;;;19.40;99.90;;;;;;4937431;29;20027;-81
2022/09/28 12:40:21;;;;;;;7.82;1.13;;;19.30;99.90;;;;;;4935140;29;20027;-81
2022/09/28 12:43:29;;;;;;;4.47;0.88;;;19.20;99.90;;;;;;4933789;29;20063;-81
2022/09/28 12:46:22;;;;;;;5.53;0.80;;;19.30;99.90;;;;;;4925198;29;20390;-81
2022/09/28 12:49:09;;;;;;;5.50;1.30;;;19.30;99.90;;;;;;4929940;29;20039;-81
2022/09/28 12:52:12;;;;;;;8.80;1.10;;;19.00;99.90;;;;;;4933334;29;20102;-81
2022/09/28 12:54:59;;;;;;;6.63;1.00;;;18.70;99.90;;;;;;4916051;29;20035;-81
2022/09/28 12:57:57;;;;;;;7.65;1.25;;;18.40;99.90;;;;;;4933271;29;20036;-81
2022/09/28 13:00:56;;;;;;;6.90;1.33;;;18.10;99.90;;;;;;4930685;29;20520;-81
2022/09/28 13:03:33;;;;;;;5.53;0.90;;;18.10;99.90;;;;;;4922156;29;20143;-81
2022/09/28 13:06:20;;;;;;;5.00;1.08;;;18.30;99.90;;;;;;4922914;29;20042;-81
2022/09/28 13:09:02;;;;;;;7.63;0.90;;;18.50;99.90;;;;;;4933011;29;20526;-81
2022/09/28 13:11:50;;;;;;;4.30;1.00;;;18.50;99.90;;;;;;4928075;29;20023;-81
2022/09/28 13:14:42;;;;;;;6.15;1.10;;;18.70;99.90;;;;;;4929811;29;20118;-81
2022/09/28 13:17:15;;;;;;;10.40;1.40;;;18.90;99.90;;;;;;4933130;29;20034;-81
2022/09/28 13:19:58;;;;;;;11.00;1.23;;;19.40;99.90;;;;;;4909998;29;20114;-81
2022/09/28 13:22:48;;;;;;;10.68;1.50;;;19.70;99.90;;;;;;4933246;29;20115;-81